ADDS METAR Data INFO
IDs: Format: Raw Decoded Include TAF

Data at: 0502 UTC 23 May 2017

KELP 230451Z 02003KT 10SM CLR 26/M06 A2994 RMK AO2 SLP065 T02561061
KELP 230351Z 01006KT 10SM CLR 26/M06 A2993 RMK AO2 SLP062 T02611061
KELP 230251Z 02008KT 10SM FEW140 28/M06 A2992 RMK AO2 SLP057 T02831061 53014
KELP 230151Z 35012KT 10SM FEW140 FEW200 31/M06 A2989 RMK AO2 SLP047 T03061056
KELP 230051Z 31015G24KT 10SM FEW140 FEW200 33/M11 A2987 RMK AO2 PK WND 29029/0005 SLP040 T03281106
KELP 222351Z 28016G23KT 10SM FEW140 FEW200 33/M12 A2987 RMK AO2 PK WND 25027/2332 SLP041 VIRGA N-NE T03281117 10350 20267 56022
KELP 222251Z 29019KT 10SM FEW140 FEW200 33/M08 A2989 RMK AO2 WSHFT 2218 SLP045 CB DSNT NE T03331083
KELP 222238Z 29019G25KT 10SM FEW140 FEW200 35/M08 A2990 RMK AO2 WSHFT 2218 CB DSNT NE T03501078
KELP 222151Z 24010G23KT 10SM FEW140 FEW200 33/M03 A2992 RMK AO2 SLP053 CB DSNT NE T03331028
KELP 222051Z VRB06KT 10SM FEW140 32/M02 A2994 RMK AO2 WSHFT 2007 SLP065 TCU DSNT SE T03171017 56025
KELP 221951Z 30005KT 10SM FEW100 32/05 A2997 RMK AO2 SLP071 CB DSNT E AND SE T03170050
KELP 221851Z 05005KT 10SM FEW085 30/08 A3000 RMK AO2 SLP084 TCU DSNT NE T03000078
KELP 221751Z 00000KT 10SM FEW080 27/09 A3003 RMK AO2 SLP096 T02670089 10278 20183 58009
KELP 221651Z 13003KT 10SM FEW070 26/09 A3004 RMK AO2 SLP101 T02560089
KELP 221551Z 12004KT 10SM CLR 23/09 A3005 RMK AO2 SLP107 T02330094
KELP 221451Z VRB05KT 10SM CLR 22/09 A3006 RMK AO2 SLP108 T02220094 51010
KELP 221351Z 00000KT 10SM CLR 21/09 A3005 RMK AO2 SLP104 T02110094
KELP 221251Z 00000KT 10SM CLR 19/09 A3003 RMK AO2 SLP099 T01940094
KELP 221151Z 06003KT 10SM CLR 18/09 A3002 RMK AO2 SLP094 T01830094 10233 20178 55000
KELP 221051Z 02004KT 10SM CLR 19/09 A3001 RMK AO2 SLP090 T01940094
KELP 220951Z 36006KT 10SM CLR 19/09 A3002 RMK AO2 SLP093 T01940094
KELP 220851Z 00000KT 10SM CLR 21/10 A3002 RMK AO2 SLP093 T02060100 50000
KELP 220751Z 15011KT 10SM CLR 21/09 A3002 RMK AO2 SLP095 T02110094
KELP 220651Z 16004KT 10SM CLR 22/09 A3002 RMK AO2 SLP095 T02170089 403280172
KELP 220551Z 17007KT 10SM CLR 23/09 A3002 RMK AO2 SLP093 T02330089 10322 20233 51012
KELP 220451Z 16011KT 10SM CLR 24/09 A3001 RMK AO2 SLP093 T02390094
KELP 220351Z 14010G19KT 10SM FEW120 FEW250 24/09 A3001 RMK AO2 SLP094 T02440094
KELP 220251Z 13013G20KT 10SM FEW120 FEW250 27/08 A2998 RMK AO2 SLP082 T02670078 53015
KELP 220151Z 11005KT 10SM FEW130 FEW250 30/M01 A2995 RMK AO2 SLP070 T03001011
KELP 220051Z 00000KT 10SM FEW120 FEW250 31/M01 A2994 RMK AO2 SLP065 T03111011
KELP 212351Z 25007KT 10SM FEW120 FEW250 31/M01 A2993 RMK AO2 SLP066 T03111006 10328 20267 56014
KELP 212251Z 22008KT 10SM FEW100 FEW250 33/01 A2994 RMK AO2 SLP065 T03280006
KELP 212151Z 01009KT 10SM FEW120 FEW250 32/01 A2996 RMK AO2 SLP071 T03220011
KELP 212051Z 00000KT 10SM SCT110 SCT250 30/02 A2998 RMK AO2 SLP079 CB DSNT SE-S T03000022 58027
KELP 211951Z 00000KT 10SM FEW100 FEW250 30/04 A3001 RMK AO2 SLP091 CB DSNT SE T03000039
KELP 211851Z 15007KT 10SM FEW070 FEW200 29/07 A3004 RMK AO2 SLP100 T02890067
KELP 211751Z 13010G15KT 10SM FEW070 27/09 A3007 RMK AO2 SLP112 T02720089 10272 20172 58009


Page loaded:  05:02 UTC  |   10:02 PM Pacific  |   11:02 PM Mountain  |   12:02 AM Central  |   01:02 AM Eastern

 

ADVISORIES

FORECASTS

FORECASTS

OBSERVATIONS

USER TOOLS

ABOUT US